Time;durP1;ratioP1;P1;durP2;ratioP2;P2;SDS_P1;SDS_P2;PMS_P1;PMS_P2;Temp;Humidity;BMP_temperature;BMP_pressure;BME280_temperature;BME280_humidity;BME280_pressure;Samples;Min_cycle;Max_cycle;Signal;HPM_P1;HPM_P2
2023/06/13 00:00:09;;;;;;;;;;;;;;;21.00;42.32;101358.44;4972188;28;20000;-72
2023/06/13 00:02:34;;;;;;;;;;;;;;;20.80;43.63;101362.41;4970773;28;19921;-71
2023/06/13 00:05:01;;;;;;;;;;;;;;;20.76;43.53;101361.06;4974955;28;19929;-71
2023/06/13 00:07:26;;;;;;;;;;;;;;;20.72;43.40;101356.94;4972403;28;19918;-72
2023/06/13 00:09:51;;;;;;;;;;;;;;;20.64;44.29;101359.72;4975217;28;19969;-71
2023/06/13 00:12:20;;;;;;;;;;;;;;;20.51;44.02;101355.63;4974101;28;20023;-71
2023/06/13 00:14:45;;;;;;;;;;;;;;;20.52;44.26;101357.31;4970110;28;20336;-73
2023/06/13 00:17:11;;;;;;;;;;;;;;;20.46;44.26;101357.19;4978054;28;19987;-72
2023/06/13 00:19:36;;;;;;;;;;;;;;;20.44;44.12;101349.16;4971811;28;19922;-72
2023/06/13 00:22:01;;;;;;;;;;;;;;;20.41;44.37;101352.22;4974424;28;19922;-73
2023/06/13 00:24:26;;;;;;;;;;;;;;;20.35;45.25;101353.75;4972525;28;20201;-72
2023/06/13 00:26:52;;;;;;;;;;;;;;;20.37;44.23;101348.16;4974385;28;19928;-72
2023/06/13 00:29:17;;;;;;;;;;;;;;;20.30;44.60;101347.13;4989618;28;19972;-73
2023/06/13 00:31:43;;;;;;;;;;;;;;;20.25;45.25;101347.66;4975468;28;20391;-72
2023/06/13 00:34:08;;;;;;;;;;;;;;;20.14;45.48;101346.09;4973344;28;19961;-72
2023/06/13 00:36:34;;;;;;;;;;;;;;;20.09;44.97;101353.97;4976041;28;20009;-72
2023/06/13 00:38:59;;;;;;;;;;;;;;;20.04;45.92;101348.16;4975465;28;19930;-72
2023/06/13 00:41:25;;;;;;;;;;;;;;;19.89;46.10;101350.69;4971804;28;20529;-73
2023/06/13 00:43:50;;;;;;;;;;;;;;;19.79;46.46;101345.38;4973332;28;19917;-72
2023/06/13 00:46:24;;;;;;;;;;;;;;;19.75;45.66;101344.00;4976889;28;19988;-72
2023/06/13 00:48:49;;;;;;;;;;;;;;;19.70;46.79;101340.94;4973156;28;19932;-73
2023/06/13 00:51:15;;;;;;;;;;;;;;;19.70;46.25;101339.06;4974113;28;19926;-72
2023/06/13 00:53:40;;;;;;;;;;;;;;;19.64;47.04;101340.56;4973014;28;19928;-73
2023/06/13 00:56:06;;;;;;;;;;;;;;;19.60;46.63;101350.09;4970320;28;19922;-72
2023/06/13 00:58:32;;;;;;;;;;;;;;;19.61;47.94;101340.06;4966014;28;20009;-72
2023/06/13 01:00:57;;;;;;;;;;;;;;;19.57;49.40;101342.28;4966317;28;19926;-72
2023/06/13 01:03:23;;;;;;;;;;;;;;;19.55;48.17;101340.72;4983491;28;20052;-73
2023/06/13 01:05:48;;;;;;;;;;;;;;;19.49;48.82;101344.97;4971264;28;19922;-73
2023/06/13 01:08:21;;;;;;;;;;;;;;;19.39;48.27;101345.13;4968155;28;19932;-73
2023/06/13 01:10:52;;;;;;;;;;;;;;;19.36;48.38;101340.00;4982969;28;19961;-72
2023/06/13 01:13:29;;;;;;;;;;;;;;;19.29;49.32;101341.69;4952302;28;19921;-72
2023/06/13 01:15:59;;;;;;;;;;;;;;;19.26;48.96;101337.44;4968970;28;20324;-72
2023/06/13 01:18:24;;;;;;;;;;;;;;;19.18;49.28;101343.69;4969359;28;20036;-72
2023/06/13 01:20:56;;;;;;;;;;;;;;;19.09;50.14;101339.22;4969077;28;19926;-73
2023/06/13 01:23:31;;;;;;;;;;;;;;;19.00;50.32;101342.91;4968398;28;20020;-72
2023/06/13 01:26:02;;;;;;;;;;;;;;;18.85;51.20;101335.34;4973163;28;19922;-72
2023/06/13 01:28:27;;;;;;;;;;;;;;;18.58;50.79;101318.22;4970955;28;19925;-72
2023/06/13 01:30:53;;;;;;;;;;;;;;;18.67;51.01;101346.28;4974287;28;19953;-73
2023/06/13 01:33:18;;;;;;;;;;;;;;;18.67;52.26;101337.31;4973850;28;19953;-73
2023/06/13 01:35:43;;;;;;;;;;;;;;;18.65;51.75;101340.16;4956860;28;20004;-72
2023/06/13 01:38:08;;;;;;;;;;;;;;;18.62;52.58;101345.91;4974914;28;19969;-74
2023/06/13 01:40:34;;;;;;;;;;;;;;;18.57;52.50;101334.66;4973346;28;19921;-74
2023/06/13 01:42:59;;;;;;;;;;;;;;;18.49;53.27;101345.50;4971579;28;19965;-73
2023/06/13 01:45:24;;;;;;;;;;;;;;;18.40;53.52;101340.00;4971172;28;19932;-72
2023/06/13 01:48:00;;;;;;;;;;;;;;;18.35;53.71;101339.63;4974843;28;19922;-72
2023/06/13 01:50:43;;;;;;;;;;;;;;;18.28;53.97;101339.41;4969600;28;19928;-72
2023/06/13 01:53:10;;;;;;;;;;;;;;;18.23;54.97;101336.31;4972334;28;20416;-72
2023/06/13 01:55:39;;;;;;;;;;;;;;;18.12;55.20;101336.56;4958386;28;20267;-73
2023/06/13 01:58:11;;;;;;;;;;;;;;;18.06;57.29;101329.03;4971197;28;19918;-74
2023/06/13 02:00:37;;;;;;;;;;;;;;;17.93;57.44;101337.56;4969157;28;20348;-73
2023/06/13 02:03:03;;;;;;;;;;;;;;;17.86;57.63;101329.19;4966914;28;21545;-73
2023/06/13 02:05:28;;;;;;;;;;;;;;;17.73;58.94;101329.56;4958015;28;19921;-74
2023/06/13 02:07:56;;;;;;;;;;;;;;;17.59;59.26;101335.53;4973649;28;19928;-72
2023/06/13 02:10:22;;;;;;;;;;;;;;;17.38;60.74;101340.22;4974066;28;20037;-73
2023/06/13 02:12:47;;;;;;;;;;;;;;;17.26;64.20;101330.59;4975581;28;19921;-73
2023/06/13 02:15:12;;;;;;;;;;;;;;;17.21;64.89;101333.78;4962422;28;19922;-74
2023/06/13 02:17:37;;;;;;;;;;;;;;;17.19;64.92;101327.66;4976312;28;19917;-75
2023/06/13 02:20:04;;;;;;;;;;;;;;;17.16;65.49;101333.38;4978786;28;19968;-74
2023/06/13 02:22:29;;;;;;;;;;;;;;;17.10;65.40;101333.97;4975203;28;19929;-74
2023/06/13 02:24:55;;;;;;;;;;;;;;;16.99;65.56;101326.88;4978633;28;19918;-75
2023/06/13 02:27:20;;;;;;;;;;;;;;;16.89;66.46;101337.75;4979931;28;20324;-74
2023/06/13 02:29:45;;;;;;;;;;;;;;;16.82;68.29;101328.47;4960230;28;20240;-74
2023/06/13 02:32:10;;;;;;;;;;;;;;;16.79;69.20;101334.19;4972975;28;20012;-74
2023/06/13 02:34:35;;;;;;;;;;;;;;;16.71;69.76;101331.38;4991128;28;20008;-74
2023/06/13 02:37:01;;;;;;;;;;;;;;;16.55;72.35;101330.16;4977802;28;20032;-74
2023/06/13 02:39:26;;;;;;;;;;;;;;;16.51;76.18;101333.31;4976085;28;20285;-74
2023/06/13 02:41:51;;;;;;;;;;;;;;;16.47;81.36;101332.72;4975040;28;19930;-74
2023/06/13 02:44:16;;;;;;;;;;;;;;;16.52;78.32;101340.44;4976408;28;19918;-74
2023/06/13 02:46:42;;;;;;;;;;;;;;;16.57;74.95;101338.13;4978284;28;19918;-74
2023/06/13 02:49:07;;;;;;;;;;;;;;;16.61;73.21;101326.84;4976730;28;19964;-74
2023/06/13 02:51:32;;;;;;;;;;;;;;;16.64;73.99;101334.69;4987964;28;19953;-74
2023/06/13 02:53:57;;;;;;;;;;;;;;;16.61;74.33;101334.13;4977808;28;19929;-74
2023/06/13 02:56:23;;;;;;;;;;;;;;;16.58;74.98;101338.00;4978525;28;19961;-74
2023/06/13 02:58:48;;;;;;;;;;;;;;;16.52;74.90;101337.72;4973362;28;19945;-74
2023/06/13 03:01:14;;;;;;;;;;;;;;;16.37;77.42;101330.03;4973183;28;20308;-74
2023/06/13 03:03:40;;;;;;;;;;;;;;;16.31;79.73;101328.78;4969235;28;19922;-74
2023/06/13 03:06:06;;;;;;;;;;;;;;;16.28;83.92;101333.63;4975598;28;20289;-74
2023/06/13 03:08:31;;;;;;;;;;;;;;;16.17;84.18;101332.78;4957761;28;20470;-74
2023/06/13 03:10:56;;;;;;;;;;;;;;;16.10;83.14;101331.66;4969546;28;20456;-74
2023/06/13 03:13:22;;;;;;;;;;;;;;;15.91;81.81;101308.13;4968856;28;20024;-74
2023/06/13 03:15:47;;;;;;;;;;;;;;;16.04;82.09;101338.50;4972698;28;19922;-74
2023/06/13 03:18:13;;;;;;;;;;;;;;;16.01;83.59;101332.53;4974440;28;19965;-74
2023/06/13 03:20:38;;;;;;;;;;;;;;;15.95;83.32;101338.50;4976499;28;20092;-74
2023/06/13 03:23:03;;;;;;;;;;;;;;;15.83;84.10;101330.47;4974149;28;19964;-74
2023/06/13 03:25:29;;;;;;;;;;;;;;;15.74;87.25;101340.31;4956912;28;20279;-74
2023/06/13 03:27:55;;;;;;;;;;;;;;;15.64;87.99;101334.03;4975335;28;19925;-74
2023/06/13 03:30:20;;;;;;;;;;;;;;;15.57;90.05;101341.03;4976826;28;19929;-74
2023/06/13 03:32:45;;;;;;;;;;;;;;;15.51;92.01;101331.59;4971655;28;20763;-74
2023/06/13 03:35:10;;;;;;;;;;;;;;;15.38;91.72;101331.00;4975692;28;19925;-73
2023/06/13 03:37:36;;;;;;;;;;;;;;;15.26;92.73;101331.09;4973452;28;20031;-74
2023/06/13 03:40:01;;;;;;;;;;;;;;;15.20;93.98;101333.50;4972622;28;20393;-74
2023/06/13 03:42:26;;;;;;;;;;;;;;;15.27;94.55;101330.13;4973186;28;20891;-74
2023/06/13 03:44:51;;;;;;;;;;;;;;;15.26;93.79;101324.84;4973417;28;20029;-74
2023/06/13 03:47:17;;;;;;;;;;;;;;;15.33;92.86;101334.13;4958747;28;19928;-74
2023/06/13 03:49:43;;;;;;;;;;;;;;;15.35;92.21;101333.97;4973345;28;19979;-74
2023/06/13 03:52:08;;;;;;;;;;;;;;;15.29;93.81;101327.28;4972770;28;20384;-74
2023/06/13 03:54:33;;;;;;;;;;;;;;;15.27;93.17;101327.41;4976116;28;19929;-74
2023/06/13 03:56:59;;;;;;;;;;;;;;;15.29;92.20;101330.84;4973143;28;20454;-74
2023/06/13 03:59:24;;;;;;;;;;;;;;;15.28;91.88;101325.56;4972616;28;20462;-74
2023/06/13 04:01:49;;;;;;;;;;;;;;;15.29;90.79;101330.00;4975411;28;20122;-74
2023/06/13 04:04:15;;;;;;;;;;;;;;;15.36;88.42;101331.13;4970580;28;20418;-74
2023/06/13 04:06:41;;;;;;;;;;;;;;;15.51;86.76;101328.88;4973360;28;20048;-74
2023/06/13 04:09:07;;;;;;;;;;;;;;;15.64;87.11;101328.59;4975235;28;19928;-74
2023/06/13 04:11:33;;;;;;;;;;;;;;;15.70;86.16;101336.19;4974237;28;20210;-74
2023/06/13 04:13:59;;;;;;;;;;;;;;;15.74;84.93;101342.19;4972197;28;20149;-74
2023/06/13 04:16:24;;;;;;;;;;;;;;;15.77;83.58;101341.88;4975294;28;20384;-74
2023/06/13 04:18:49;;;;;;;;;;;;;;;15.76;82.42;101340.16;4975465;28;20032;-74
2023/06/13 04:21:14;;;;;;;;;;;;;;;15.85;82.24;101341.19;4976562;28;20115;-75
2023/06/13 04:23:40;;;;;;;;;;;;;;;16.01;81.05;101349.63;4972408;28;20004;-74
2023/06/13 04:26:05;;;;;;;;;;;;;;;16.03;78.71;101352.16;4964443;28;19921;-74
2023/06/13 04:28:32;;;;;;;;;;;;;;;16.18;77.94;101349.88;4966409;28;20275;-75
2023/06/13 04:30:57;;;;;;;;;;;;;;;16.32;77.42;101351.28;4970708;28;19925;-74
2023/06/13 04:33:24;;;;;;;;;;;;;;;16.40;77.18;101348.72;4968174;28;20230;-75
2023/06/13 04:35:49;;;;;;;;;;;;;;;16.44;77.23;101349.28;4970544;28;19925;-74
2023/06/13 04:38:16;;;;;;;;;;;;;;;16.52;76.80;101349.41;4967118;28;19922;-74
2023/06/13 04:40:41;;;;;;;;;;;;;;;16.57;75.09;101351.66;4968376;28;20784;-74
2023/06/13 04:43:09;;;;;;;;;;;;;;;16.64;75.43;101353.66;4968799;28;19929;-74
2023/06/13 04:45:35;;;;;;;;;;;;;;;16.73;74.94;101354.63;4952387;28;20261;-74
2023/06/13 04:48:01;;;;;;;;;;;;;;;16.81;75.18;101362.03;4969915;28;20363;-74
2023/06/13 04:50:27;;;;;;;;;;;;;;;16.89;73.57;101358.56;4972008;28;19922;-75
2023/06/13 04:52:53;;;;;;;;;;;;;;;16.95;72.80;101360.69;4966989;28;19957;-74
2023/06/13 04:55:21;;;;;;;;;;;;;;;17.07;73.28;101359.53;4968857;28;19922;-74
2023/06/13 04:57:46;;;;;;;;;;;;;;;17.11;73.19;101365.50;4969078;28;19926;-74
2023/06/13 05:00:11;;;;;;;;;;;;;;;17.18;73.66;101369.34;4970683;28;19925;-74
2023/06/13 05:02:38;;;;;;;;;;;;;;;17.28;72.89;101376.56;4972993;28;20381;-76
2023/06/13 05:05:04;;;;;;;;;;;;;;;17.37;71.49;101367.53;4971819;28;20008;-74
2023/06/13 05:07:30;;;;;;;;;;;;;;;17.47;72.59;101375.59;4969664;28;19941;-74
2023/06/13 05:09:55;;;;;;;;;;;;;;;17.56;70.77;101379.25;4976674;28;20492;-74
2023/06/13 05:12:22;;;;;;;;;;;;;;;17.67;68.37;101365.50;4969152;28;19925;-74
2023/06/13 05:14:47;;;;;;;;;;;;;;;17.78;71.68;101370.69;4972441;28;20132;-74
2023/06/13 05:17:14;;;;;;;;;;;;;;;17.87;68.89;101373.47;4976193;28;20078;-75
2023/06/13 05:19:40;;;;;;;;;;;;;;;17.98;68.88;101368.72;4971939;28;19922;-75
2023/06/13 05:22:05;;;;;;;;;;;;;;;18.07;68.93;101371.50;4963965;28;20639;-74
2023/06/13 05:24:31;;;;;;;;;;;;;;;18.20;67.56;101374.66;4970265;28;20227;-74
2023/06/13 05:26:56;;;;;;;;;;;;;;;18.29;65.69;101365.56;4977398;28;19917;-74
2023/06/13 05:29:22;;;;;;;;;;;;;;;18.40;66.36;101369.06;4975026;28;19948;-74
2023/06/13 05:31:47;;;;;;;;;;;;;;;18.54;66.10;101367.63;4978942;28;20371;-74
2023/06/13 05:34:12;;;;;;;;;;;;;;;18.64;64.66;101365.66;4972315;28;20357;-74
2023/06/13 05:36:37;;;;;;;;;;;;;;;18.77;64.62;101372.53;4977122;28;19918;-75
2023/06/13 05:39:02;;;;;;;;;;;;;;;18.84;61.61;101363.56;4976396;28;19922;-74
2023/06/13 05:41:28;;;;;;;;;;;;;;;18.96;60.91;101366.91;4975156;28;19972;-74
2023/06/13 05:43:53;;;;;;;;;;;;;;;19.03;60.20;101367.09;4975510;28;20024;-74
2023/06/13 05:46:18;;;;;;;;;;;;;;;19.09;56.93;101368.28;4978665;28;19959;-75
2023/06/13 05:48:43;;;;;;;;;;;;;;;19.09;58.86;101365.56;4978242;28;20020;-75
2023/06/13 05:51:09;;;;;;;;;;;;;;;19.13;58.43;101358.78;4974374;28;19929;-74
2023/06/13 05:53:34;;;;;;;;;;;;;;;19.20;59.00;101365.31;4975840;28;19929;-73
2023/06/13 05:55:59;;;;;;;;;;;;;;;19.24;57.02;101368.53;4979497;28;19926;-72
2023/06/13 05:58:24;;;;;;;;;;;;;;;19.39;55.73;101368.75;4977291;28;20052;-75
2023/06/13 06:00:50;;;;;;;;;;;;;;;19.48;56.46;101371.34;4977807;28;20002;-74
2023/06/13 06:03:16;;;;;;;;;;;;;;;19.54;56.30;101364.41;4972822;28;19928;-72
2023/06/13 06:05:41;;;;;;;;;;;;;;;19.60;56.17;101369.16;4975271;28;19922;-74
2023/06/13 06:08:06;;;;;;;;;;;;;;;19.60;55.53;101371.03;4977745;28;20261;-72
2023/06/13 06:10:31;;;;;;;;;;;;;;;19.73;56.08;101367.84;4971781;28;21651;-72
2023/06/13 06:12:56;;;;;;;;;;;;;;;19.85;56.02;101371.97;4975355;28;20507;-72
2023/06/13 06:15:22;;;;;;;;;;;;;;;19.90;54.14;101371.47;4979603;28;20376;-72
2023/06/13 06:17:47;;;;;;;;;;;;;;;20.03;54.62;101377.28;4978411;28;20008;-73
2023/06/13 06:20:12;;;;;;;;;;;;;;;20.11;54.40;101373.72;4975700;28;20008;-74
2023/06/13 06:22:37;;;;;;;;;;;;;;;20.24;54.15;101365.03;4974428;28;19921;-72
2023/06/13 06:25:03;;;;;;;;;;;;;;;20.34;54.90;101373.03;4977156;28;19921;-73
2023/06/13 06:27:28;;;;;;;;;;;;;;;20.40;54.19;101376.94;4978570;28;19936;-73
2023/06/13 06:29:53;;;;;;;;;;;;;;;20.47;54.36;101370.63;4974064;28;20418;-72
2023/06/13 06:32:18;;;;;;;;;;;;;;;20.59;53.14;101373.84;4974065;28;20613;-72
2023/06/13 06:34:44;;;;;;;;;;;;;;;20.69;53.81;101376.38;4973809;28;19929;-72
2023/06/13 06:37:09;;;;;;;;;;;;;;;20.77;53.22;101375.56;4969294;28;20431;-72
2023/06/13 06:39:34;;;;;;;;;;;;;;;20.81;54.49;101375.03;4977045;28;20400;-72
2023/06/13 06:41:59;;;;;;;;;;;;;;;20.77;53.51;101375.56;4978831;28;19922;-72
2023/06/13 06:44:25;;;;;;;;;;;;;;;20.80;52.72;101373.34;4974985;28;19980;-73
2023/06/13 06:46:50;;;;;;;;;;;;;;;20.95;54.06;101378.06;4971721;28;19968;-74
2023/06/13 06:49:18;;;;;;;;;;;;;;;21.04;55.10;101378.91;4977644;28;19924;-73
2023/06/13 06:51:43;;;;;;;;;;;;;;;21.09;52.92;101388.25;4977609;28;19929;-74
2023/06/13 06:54:10;;;;;;;;;;;;;;;21.11;53.52;101383.47;4973390;28;19925;-73
2023/06/13 06:56:35;;;;;;;;;;;;;;;21.18;53.63;101391.81;4977624;28;20056;-72
2023/06/13 06:59:00;;;;;;;;;;;;;;;21.12;53.29;101384.31;4974820;28;19922;-71
2023/06/13 07:01:26;;;;;;;;;;;;;;;21.28;52.39;101388.88;4974446;28;19922;-72
2023/06/13 07:03:51;;;;;;;;;;;;;;;21.40;53.61;101387.47;4973545;28;19928;-72
2023/06/13 07:06:16;;;;;;;;;;;;;;;21.58;53.57;101387.16;4977770;28;19928;-72
2023/06/13 07:08:41;;;;;;;;;;;;;;;21.54;51.83;101388.59;4976898;28;19922;-74
2023/06/13 07:11:06;;;;;;;;;;;;;;;21.57;50.33;101385.50;4991168;28;20339;-73
2023/06/13 07:13:32;;;;;;;;;;;;;;;21.65;51.84;101381.88;4973114;28;19957;-70
2023/06/13 07:15:57;;;;;;;;;;;;;;;21.68;49.68;101384.28;4977318;28;19922;-70
2023/06/13 07:18:22;;;;;;;;;;;;;;;21.82;50.94;101379.91;4978357;28;19937;-73
2023/06/13 07:20:47;;;;;;;;;;;;;;;21.90;51.02;101381.72;4975950;28;19921;-69
2023/06/13 07:23:13;;;;;;;;;;;;;;;21.94;49.22;101376.75;4976893;28;19972;-75
2023/06/13 07:25:40;;;;;;;;;;;;;;;22.01;49.10;101384.03;4986549;28;20048;-71
2023/06/13 07:28:06;;;;;;;;;;;;;;;22.13;48.29;101386.34;4974434;28;19925;-73
2023/06/13 07:30:31;;;;;;;;;;;;;;;21.98;48.31;101391.75;4976623;28;20024;-71
2023/06/13 07:32:56;;;;;;;;;;;;;;;22.12;50.85;101395.56;4986031;28;19964;-71
2023/06/13 07:35:23;;;;;;;;;;;;;;;22.11;49.17;101389.28;4976926;28;20469;-71
2023/06/13 07:37:49;;;;;;;;;;;;;;;22.20;51.01;101394.66;4975606;28;19929;-70
2023/06/13 07:40:15;;;;;;;;;;;;;;;22.32;50.34;101393.19;4990654;28;19921;-70
2023/06/13 07:42:40;;;;;;;;;;;;;;;22.38;52.79;101386.97;4968172;28;19929;-71
2023/06/13 07:45:05;;;;;;;;;;;;;;;22.45;47.83;101384.41;4973363;28;20351;-73
2023/06/13 07:47:31;;;;;;;;;;;;;;;22.56;46.91;101385.84;4975651;28;20372;-69
2023/06/13 07:49:56;;;;;;;;;;;;;;;22.73;46.84;101384.63;4976549;28;20191;-71
2023/06/13 07:52:21;;;;;;;;;;;;;;;22.80;48.17;101392.09;4971839;28;19926;-72
2023/06/13 07:54:46;;;;;;;;;;;;;;;22.88;47.89;101381.91;4975756;28;19921;-69
2023/06/13 07:57:12;;;;;;;;;;;;;;;22.90;45.78;101385.31;4976756;28;19996;-72
2023/06/13 07:59:37;;;;;;;;;;;;;;;23.04;45.12;101375.38;4974447;28;20032;-72
2023/06/13 08:02:03;;;;;;;;;;;;;;;22.90;46.67;101377.09;4975538;28;19922;-74
2023/06/13 08:04:28;;;;;;;;;;;;;;;22.90;47.06;101381.72;4976452;28;20508;-74
2023/06/13 08:06:53;;;;;;;;;;;;;;;23.01;46.66;101375.75;4960150;28;19972;-72
2023/06/13 08:09:18;;;;;;;;;;;;;;;23.06;47.39;101376.06;4975302;28;20068;-72
2023/06/13 08:11:44;;;;;;;;;;;;;;;22.94;45.91;101374.81;4976468;28;20045;-72
2023/06/13 08:14:12;;;;;;;;;;;;;;;23.18;45.76;101384.63;4990550;28;19913;-70
2023/06/13 08:16:37;;;;;;;;;;;;;;;23.31;48.01;101377.66;4971258;28;20312;-70
2023/06/13 08:19:04;;;;;;;;;;;;;;;23.52;46.61;101379.59;4975704;28;19929;-72
2023/06/13 08:21:29;;;;;;;;;;;;;;;23.54;44.24;101382.16;4972610;28;19929;-70
2023/06/13 08:23:55;;;;;;;;;;;;;;;23.61;44.74;101372.09;4973354;28;20622;-71
2023/06/13 08:26:20;;;;;;;;;;;;;;;23.67;45.60;101382.31;4975826;28;19918;-71
2023/06/13 08:28:46;;;;;;;;;;;;;;;23.76;46.44;101392.13;4971064;28;19961;-76
2023/06/13 08:31:12;;;;;;;;;;;;;;;23.92;47.27;101392.91;4976098;28;19976;-70
2023/06/13 08:33:38;;;;;;;;;;;;;;;23.89;46.11;101385.06;4967564;28;20440;-70
2023/06/13 08:36:04;;;;;;;;;;;;;;;23.98;46.14;101378.44;4977661;28;19926;-71
2023/06/13 08:38:29;;;;;;;;;;;;;;;24.02;43.63;101382.50;4971665;28;19945;-74
2023/06/13 08:40:55;;;;;;;;;;;;;;;24.00;43.41;101380.97;4989454;28;20406;-74
2023/06/13 08:43:20;;;;;;;;;;;;;;;24.10;46.13;101387.84;4971910;28;20534;-70
2023/06/13 08:45:45;;;;;;;;;;;;;;;24.22;41.71;101385.44;4967855;28;20470;-69
2023/06/13 08:48:10;;;;;;;;;;;;;;;24.32;42.68;101384.22;4972650;28;19996;-69
2023/06/13 08:50:36;;;;;;;;;;;;;;;24.50;44.64;101376.34;4978148;28;19989;-69
2023/06/13 08:53:01;;;;;;;;;;;;;;;24.66;42.08;101374.38;4972296;28;20011;-69
2023/06/13 08:55:27;;;;;;;;;;;;;;;24.77;45.79;101364.75;4986665;28;19930;-71
2023/06/13 08:57:52;;;;;;;;;;;;;;;24.47;43.90;101340.25;4973283;28;19972;-71
2023/06/13 09:00:18;;;;;;;;;;;;;;;24.55;42.01;101373.88;4975662;28;20153;-70
2023/06/13 09:02:45;;;;;;;;;;;;;;;24.66;41.26;101369.72;4972937;28;19922;-72
2023/06/13 09:05:15;;;;;;;;;;;;;;;24.80;40.88;101370.69;4977457;28;19921;-77
2023/06/13 09:07:40;;;;;;;;;;;;;;;24.79;39.64;101366.25;4986014;28;20195;-69
2023/06/13 09:10:06;;;;;;;;;;;;;;;24.73;40.43;101364.31;4975735;28;19922;-74
2023/06/13 09:12:32;;;;;;;;;;;;;;;24.88;43.48;101353.22;4973011;28;20312;-72
2023/06/13 09:14:57;;;;;;;;;;;;;;;25.08;40.93;101363.47;4976916;28;20480;-72
2023/06/13 09:17:22;;;;;;;;;;;;;;;25.23;39.94;101363.31;4973263;28;20473;-70
2023/06/13 09:19:47;;;;;;;;;;;;;;;25.27;40.38;101375.59;4973401;28;20009;-70
2023/06/13 09:22:14;;;;;;;;;;;;;;;25.27;38.75;101367.34;4976621;28;19921;-77
2023/06/13 09:24:39;;;;;;;;;;;;;;;25.42;39.45;101364.47;4974891;28;19922;-74
2023/06/13 09:27:04;;;;;;;;;;;;;;;25.55;42.00;101363.69;4972323;28;19933;-71
2023/06/13 09:29:30;;;;;;;;;;;;;;;25.41;42.19;101344.34;4973209;28;19922;-72
2023/06/13 09:31:59;;;;;;;;;;;;;;;25.54;41.66;101370.25;4976363;28;19933;-71
2023/06/13 09:34:25;;;;;;;;;;;;;;;25.54;38.21;101373.00;4970709;28;20003;-69
2023/06/13 09:36:50;;;;;;;;;;;;;;;25.55;42.09;101363.69;4974035;28;20378;-73
2023/06/13 09:39:16;;;;;;;;;;;;;;;25.64;39.46;101367.91;4972986;28;20012;-74
2023/06/13 09:41:41;;;;;;;;;;;;;;;25.73;43.34;101369.44;4977543;28;19964;-76
2023/06/13 09:44:06;;;;;;;;;;;;;;;25.60;38.41;101355.63;4970307;28;20206;-71
2023/06/13 09:46:35;;;;;;;;;;;;;;;25.73;39.11;101369.44;4978009;28;19961;-78
2023/06/13 09:49:01;;;;;;;;;;;;;;;25.98;39.53;101362.47;4977040;28;19921;-72
2023/06/13 09:51:29;;;;;;;;;;;;;;;25.92;36.49;101366.09;4980570;28;20157;-74
2023/06/13 09:53:54;;;;;;;;;;;;;;;26.08;37.16;101364.84;4974008;28;20557;-73
2023/06/13 09:56:22;;;;;;;;;;;;;;;26.09;38.90;101364.63;4981770;28;19921;-73
2023/06/13 09:58:47;;;;;;;;;;;;;;;26.17;39.11;101361.72;4984831;28;20390;-70
2023/06/13 10:01:15;;;;;;;;;;;;;;;26.39;39.40;101350.47;4985137;28;19922;-75
2023/06/13 10:03:41;;;;;;;;;;;;;;;26.60;36.83;101346.66;4979816;28;19921;-74
2023/06/13 10:06:06;;;;;;;;;;;;;;;26.69;36.29;101350.00;4981128;28;19922;-73
2023/06/13 10:08:33;;;;;;;;;;;;;;;26.66;35.68;101344.94;4979635;28;20331;-76
2023/06/13 10:11:00;;;;;;;;;;;;;;;26.85;36.19;101356.13;4984968;28;19972;-70
2023/06/13 10:13:26;;;;;;;;;;;;;;;26.83;35.98;101342.59;4981001;28;20484;-72
2023/06/13 10:15:51;;;;;;;;;;;;;;;27.15;37.55;101348.19;4993054;28;19957;-73
2023/06/13 10:18:19;;;;;;;;;;;;;;;27.18;35.82;101353.28;4981568;28;19984;-73
2023/06/13 10:20:44;;;;;;;;;;;;;;;27.14;33.63;101346.53;5001886;28;19932;-71
2023/06/13 10:23:10;;;;;;;;;;;;;;;27.14;32.99;101349.28;4983689;28;19917;-76
2023/06/13 10:25:35;;;;;;;;;;;;;;;27.00;35.27;101347.63;4978034;28;19924;-72
2023/06/13 10:28:05;;;;;;;;;;;;;;;26.81;35.29;101344.72;4974791;28;19921;-72
2023/06/13 10:30:44;;;;;;;;;;;;;;;27.05;34.66;101345.91;4978412;28;20106;-70
2023/06/13 10:33:23;;;;;;;;;;;;;;;27.04;33.19;101340.63;4970189;28;19925;-70
2023/06/13 10:35:54;;;;;;;;;;;;;;;27.15;34.15;101342.69;4978116;28;20016;-69
2023/06/13 10:38:22;;;;;;;;;;;;;;;27.61;31.98;101335.28;4973836;28;19926;-70
2023/06/13 10:41:06;;;;;;;;;;;;;;;27.76;33.77;101328.63;4977282;28;20020;-73
2023/06/13 10:43:34;;;;;;;;;;;;;;;27.62;33.47;101333.38;4970782;28;19921;-69
2023/06/13 10:46:02;;;;;;;;;;;;;;;27.26;34.99;101316.38;4978969;28;20045;-71
2023/06/13 10:48:31;;;;;;;;;;;;;;;27.69;37.65;101326.75;4977088;28;20739;-71
2023/06/13 10:50:56;;;;;;;;;;;;;;;28.27;32.50;101330.34;4976259;28;20422;-70
2023/06/13 10:53:26;;;;;;;;;;;;;;;28.57;32.10;101323.25;4971142;28;19918;-70
2023/06/13 10:55:57;;;;;;;;;;;;;;;29.08;34.20;101310.19;4973443;28;20230;-69
2023/06/13 10:58:25;;;;;;;;;;;;;;;29.16;35.31;101317.31;4973494;28;20292;-71
2023/06/13 11:00:50;;;;;;;;;;;;;;;28.44;33.14;101319.59;4971670;28;19913;-71
2023/06/13 11:03:15;;;;;;;;;;;;;;;28.48;36.25;101319.09;4976146;28;20002;-71
2023/06/13 11:05:44;;;;;;;;;;;;;;;28.37;32.31;101317.94;4973857;28;19917;-72
2023/06/13 11:08:19;;;;;;;;;;;;;;;28.74;31.67;101315.22;4974644;28;20371;-74
2023/06/13 11:10:48;;;;;;;;;;;;;;;28.93;32.89;101312.47;4973485;28;20377;-70
2023/06/13 11:13:20;;;;;;;;;;;;;;;28.94;31.98;101306.75;4972276;28;19921;-70
2023/06/13 11:15:45;;;;;;;;;;;;;;;29.47;30.68;101312.66;4975075;28;21208;-75
2023/06/13 11:18:13;;;;;;;;;;;;;;;29.35;31.92;101315.34;4975960;28;19963;-68
2023/06/13 11:20:55;;;;;;;;;;;;;;;29.70;30.96;101313.81;4975274;28;19922;-70
2023/06/13 11:23:24;;;;;;;;;;;;;;;29.62;29.52;101313.06;4976748;28;19918;-73
2023/06/13 11:25:50;;;;;;;;;;;;;;;29.92;29.56;101303.88;4978308;28;19921;-70
2023/06/13 11:28:15;;;;;;;;;;;;;;;30.15;31.83;101280.09;4969104;28;19925;-73
2023/06/13 11:30:42;;;;;;;;;;;;;;;30.27;29.72;101305.00;4972922;28;19929;-72
2023/06/13 11:33:07;;;;;;;;;;;;;;;30.30;29.22;101303.69;4973121;28;20019;-71
2023/06/13 11:35:32;;;;;;;;;;;;;;;30.44;29.16;101301.53;4975866;28;19930;-70
2023/06/13 11:37:58;;;;;;;;;;;;;;;30.29;31.08;101307.56;4972573;28;19925;-73
2023/06/13 11:40:25;;;;;;;;;;;;;;;30.35;27.12;101320.41;4977908;28;19991;-72
2023/06/13 11:42:50;;;;;;;;;;;;;;;30.91;27.90;101303.38;4974818;28;19917;-73
2023/06/13 11:45:15;;;;;;;;;;;;;;;30.46;28.70;101293.81;4978253;28;20338;-71
2023/06/13 11:47:43;;;;;;;;;;;;;;;31.07;28.84;101297.09;4973904;28;19944;-71
2023/06/13 11:50:08;;;;;;;;;;;;;;;30.87;27.89;101289.19;4975622;28;19918;-70
2023/06/13 11:52:34;;;;;;;;;;;;;;;31.18;29.19;101291.75;4962593;28;20383;-70
2023/06/13 11:54:59;;;;;;;;;;;;;;;31.67;28.76;101288.50;4971759;28;19936;-70
2023/06/13 11:57:43;;;;;;;;;;;;;;;31.33;30.14;101269.88;4975151;28;19958;-70
2023/06/13 12:00:09;;;;;;;;;;;;;;;31.51;28.32;101287.38;4971657;28;19957;-69
2023/06/13 12:02:34;;;;;;;;;;;;;;;31.70;26.74;101299.09;4973266;28;20419;-70
2023/06/13 12:04:59;;;;;;;;;;;;;;;31.46;27.13;101290.06;4975226;28;20396;-70
2023/06/13 12:07:26;;;;;;;;;;;;;;;32.01;28.36;101281.03;4973495;28;19932;-70
2023/06/13 12:09:51;;;;;;;;;;;;;;;32.61;26.41;101286.94;4976074;28;19976;-73
2023/06/13 12:12:17;;;;;;;;;;;;;;;32.40;25.79;101280.25;4987313;28;19926;-74
2023/06/13 12:14:42;;;;;;;;;;;;;;;32.35;26.82;101290.47;4975980;28;19952;-72
2023/06/13 12:17:09;;;;;;;;;;;;;;;32.49;25.79;101289.00;4975723;28;19972;-72
2023/06/13 12:19:35;;;;;;;;;;;;;;;31.97;27.07;101284.59;4990420;28;19926;-71
2023/06/13 12:22:01;;;;;;;;;;;;;;;31.44;27.93;101272.81;4975355;28;20361;-71
2023/06/13 12:24:26;;;;;;;;;;;;;;;31.79;25.37;101303.16;4973884;28;19968;-70
2023/06/13 12:26:52;;;;;;;;;;;;;;;31.83;26.83;101272.97;4975614;28;20542;-70
2023/06/13 12:29:22;;;;;;;;;;;;;;;31.97;24.90;101290.97;4974212;28;19918;-73